logo
Search for airport 
image banner adimage banner adimage banner ad
image banner ad

BISK - Skogasandur

Located in Skogarsandur, Iceland

ICAO - BISK, IATA -

Data provided by Airmate  

General information

Coordinates: N63°31'2" W19°29'21"
Elevation is 118 feet MSL.
 
View others Airports in South

Operational data

Special qualification required
Current time UTC:
Current local time:
Weather at : BIVM - Vestmannaeyjar ( 41 km )
METAR: BIVM 251600Z 15009KT 9999 SCT020 SCT040 12/11 Q0991
TAF: TAF BIVM 251627Z 2517/2519 26007KT 9999 BKN015 TEMPO 2517/2519 3500 -RADZ BR BKN005
View NOTAMs / SUP AIP / TFR affecting this airport [VIEW]
Communications frequencies: [VIEW]

Runways:

RWY identifierQFULength (ft)Width (ft)SurfaceLDA (ft)
12382289GRAVE
30382289GRAVE

Airport contact information

Address: Skogarsandur Iceland

Satellite view of BISK